sensor_id;sensor_type;location;lat;lon;timestamp;P1;durP1;ratioP1;P2;durP2;ratioP2
19495;SDS011;9888;48.606;9.630;2024-01-15T00:05:22;18.67;;;7.87;;
19495;SDS011;9888;48.606;9.630;2024-01-15T00:07:50;22.50;;;8.40;;
19495;SDS011;9888;48.606;9.630;2024-01-15T00:10:22;21.55;;;8.45;;
19495;SDS011;9888;48.606;9.630;2024-01-15T00:12:54;18.35;;;6.70;;
19495;SDS011;9888;48.606;9.630;2024-01-15T00:15:21;22.00;;;8.70;;
19495;SDS011;9888;48.606;9.630;2024-01-15T00:17:48;14.97;;;6.00;;
19495;SDS011;9888;48.606;9.630;2024-01-15T00:20:16;9.90;;;4.25;;
19495;SDS011;9888;48.606;9.630;2024-01-15T00:22:43;19.20;;;7.03;;
19495;SDS011;9888;48.606;9.630;2024-01-15T00:25:13;12.93;;;4.40;;
19495;SDS011;9888;48.606;9.630;2024-01-15T00:27:40;16.38;;;5.68;;
19495;SDS011;9888;48.606;9.630;2024-01-15T00:30:07;16.80;;;6.60;;
19495;SDS011;9888;48.606;9.630;2024-01-15T00:35:48;12.80;;;4.45;;
19495;SDS011;9888;48.606;9.630;2024-01-15T00:38:15;12.18;;;4.30;;
19495;SDS011;9888;48.606;9.630;2024-01-15T00:40:42;13.70;;;5.18;;
19495;SDS011;9888;48.606;9.630;2024-01-15T00:43:09;15.68;;;5.53;;
19495;SDS011;9888;48.606;9.630;2024-01-15T00:45:36;11.87;;;5.13;;
19495;SDS011;9888;48.606;9.630;2024-01-15T00:48:04;12.52;;;3.22;;
19495;SDS011;9888;48.606;9.630;2024-01-15T00:50:31;12.07;;;4.47;;
19495;SDS011;9888;48.606;9.630;2024-01-15T00:52:58;12.50;;;5.00;;
19495;SDS011;9888;48.606;9.630;2024-01-15T00:55:26;7.73;;;1.77;;
19495;SDS011;9888;48.606;9.630;2024-01-15T00:57:55;12.20;;;4.50;;
19495;SDS011;9888;48.606;9.630;2024-01-15T01:00:22;8.63;;;2.47;;
19495;SDS011;9888;48.606;9.630;2024-01-15T01:06:11;11.07;;;4.07;;
19495;SDS011;9888;48.606;9.630;2024-01-15T01:08:52;11.50;;;4.27;;
19495;SDS011;9888;48.606;9.630;2024-01-15T01:11:20;8.60;;;2.83;;
19495;SDS011;9888;48.606;9.630;2024-01-15T01:13:47;12.50;;;4.25;;
19495;SDS011;9888;48.606;9.630;2024-01-15T01:16:14;12.60;;;4.87;;
19495;SDS011;9888;48.606;9.630;2024-01-15T01:18:41;11.43;;;4.70;;
19495;SDS011;9888;48.606;9.630;2024-01-15T01:21:11;13.43;;;4.70;;
19495;SDS011;9888;48.606;9.630;2024-01-15T01:23:39;12.30;;;4.20;;
19495;SDS011;9888;48.606;9.630;2024-01-15T01:26:06;8.10;;;3.27;;
19495;SDS011;9888;48.606;9.630;2024-01-15T01:28:34;11.47;;;4.40;;
19495;SDS011;9888;48.606;9.630;2024-01-15T01:33:53;14.50;;;4.80;;
19495;SDS011;9888;48.606;9.630;2024-01-15T01:36:22;13.23;;;3.63;;
19495;SDS011;9888;48.606;9.630;2024-01-15T01:38:49;9.83;;;3.63;;
19495;SDS011;9888;48.606;9.630;2024-01-15T01:41:23;10.13;;;3.20;;
19495;SDS011;9888;48.606;9.630;2024-01-15T01:43:52;12.57;;;4.80;;
19495;SDS011;9888;48.606;9.630;2024-01-15T01:46:27;14.77;;;4.77;;
19495;SDS011;9888;48.606;9.630;2024-01-15T01:48:55;12.90;;;3.77;;
19495;SDS011;9888;48.606;9.630;2024-01-15T01:51:23;12.80;;;4.80;;
19495;SDS011;9888;48.606;9.630;2024-01-15T01:53:51;11.00;;;4.50;;
19495;SDS011;9888;48.606;9.630;2024-01-15T01:56:18;12.30;;;5.03;;
19495;SDS011;9888;48.606;9.630;2024-01-15T01:58:46;15.60;;;5.15;;
19495;SDS011;9888;48.606;9.630;2024-01-15T02:01:14;15.77;;;5.30;;
19495;SDS011;9888;48.606;9.630;2024-01-15T02:03:45;9.97;;;3.73;;
19495;SDS011;9888;48.606;9.630;2024-01-15T02:06:14;12.97;;;4.83;;
19495;SDS011;9888;48.606;9.630;2024-01-15T02:08:42;17.03;;;5.63;;
19495;SDS011;9888;48.606;9.630;2024-01-15T02:11:10;12.87;;;4.50;;
19495;SDS011;9888;48.606;9.630;2024-01-15T02:13:38;10.63;;;3.30;;
19495;SDS011;9888;48.606;9.630;2024-01-15T02:16:05;12.87;;;4.33;;
19495;SDS011;9888;48.606;9.630;2024-01-15T02:18:42;16.07;;;5.00;;
19495;SDS011;9888;48.606;9.630;2024-01-15T02:21:10;10.10;;;3.63;;
19495;SDS011;9888;48.606;9.630;2024-01-15T02:23:37;12.00;;;3.80;;
19495;SDS011;9888;48.606;9.630;2024-01-15T02:26:05;13.27;;;5.50;;
19495;SDS011;9888;48.606;9.630;2024-01-15T02:28:33;11.27;;;4.60;;
19495;SDS011;9888;48.606;9.630;2024-01-15T02:31:00;11.37;;;4.47;;
19495;SDS011;9888;48.606;9.630;2024-01-15T02:33:27;12.27;;;4.70;;
19495;SDS011;9888;48.606;9.630;2024-01-15T02:35:54;11.30;;;3.37;;
19495;SDS011;9888;48.606;9.630;2024-01-15T02:38:22;13.80;;;5.20;;
19495;SDS011;9888;48.606;9.630;2024-01-15T02:40:49;12.67;;;4.60;;
19495;SDS011;9888;48.606;9.630;2024-01-15T02:43:21;10.33;;;4.83;;
19495;SDS011;9888;48.606;9.630;2024-01-15T02:45:49;11.90;;;4.40;;
19495;SDS011;9888;48.606;9.630;2024-01-15T02:48:17;11.30;;;4.37;;
19495;SDS011;9888;48.606;9.630;2024-01-15T02:50:44;11.60;;;4.33;;
19495;SDS011;9888;48.606;9.630;2024-01-15T02:53:12;13.03;;;4.40;;
19495;SDS011;9888;48.606;9.630;2024-01-15T02:55:46;13.90;;;4.70;;
19495;SDS011;9888;48.606;9.630;2024-01-15T03:01:35;17.10;;;4.97;;
19495;SDS011;9888;48.606;9.630;2024-01-15T03:04:02;12.20;;;4.40;;
19495;SDS011;9888;48.606;9.630;2024-01-15T03:06:29;12.67;;;4.93;;
19495;SDS011;9888;48.606;9.630;2024-01-15T03:08:56;10.33;;;3.50;;
19495;SDS011;9888;48.606;9.630;2024-01-15T03:11:26;14.10;;;5.40;;
19495;SDS011;9888;48.606;9.630;2024-01-15T03:13:53;10.50;;;4.20;;
19495;SDS011;9888;48.606;9.630;2024-01-15T03:19:48;14.87;;;5.00;;
19495;SDS011;9888;48.606;9.630;2024-01-15T03:22:19;12.23;;;4.30;;
19495;SDS011;9888;48.606;9.630;2024-01-15T03:24:45;11.33;;;4.30;;
19495;SDS011;9888;48.606;9.630;2024-01-15T03:27:16;12.63;;;4.33;;
19495;SDS011;9888;48.606;9.630;2024-01-15T03:29:51;12.87;;;4.10;;
19495;SDS011;9888;48.606;9.630;2024-01-15T03:32:24;13.70;;;4.13;;
19495;SDS011;9888;48.606;9.630;2024-01-15T03:34:51;12.00;;;4.43;;
19495;SDS011;9888;48.606;9.630;2024-01-15T03:37:19;10.60;;;3.70;;
19495;SDS011;9888;48.606;9.630;2024-01-15T03:39:46;10.87;;;3.80;;
19495;SDS011;9888;48.606;9.630;2024-01-15T03:42:14;14.23;;;4.27;;
19495;SDS011;9888;48.606;9.630;2024-01-15T03:44:41;8.37;;;3.13;;
19495;SDS011;9888;48.606;9.630;2024-01-15T03:47:08;10.10;;;3.73;;
19495;SDS011;9888;48.606;9.630;2024-01-15T03:49:35;16.07;;;4.63;;
19495;SDS011;9888;48.606;9.630;2024-01-15T03:52:02;11.60;;;4.43;;
19495;SDS011;9888;48.606;9.630;2024-01-15T03:54:30;8.80;;;2.90;;
19495;SDS011;9888;48.606;9.630;2024-01-15T03:56:57;12.17;;;3.30;;
19495;SDS011;9888;48.606;9.630;2024-01-15T03:59:24;9.33;;;3.10;;
19495;SDS011;9888;48.606;9.630;2024-01-15T04:01:51;8.47;;;2.33;;
19495;SDS011;9888;48.606;9.630;2024-01-15T04:04:19;10.40;;;2.83;;
19495;SDS011;9888;48.606;9.630;2024-01-15T04:06:46;10.17;;;3.50;;
19495;SDS011;9888;48.606;9.630;2024-01-15T04:09:15;12.80;;;3.60;;
19495;SDS011;9888;48.606;9.630;2024-01-15T04:11:45;11.93;;;3.00;;
19495;SDS011;9888;48.606;9.630;2024-01-15T04:14:14;10.93;;;3.20;;
19495;SDS011;9888;48.606;9.630;2024-01-15T04:16:41;8.97;;;3.10;;
19495;SDS011;9888;48.606;9.630;2024-01-15T04:19:08;10.93;;;3.73;;
19495;SDS011;9888;48.606;9.630;2024-01-15T04:21:35;7.90;;;2.87;;
19495;SDS011;9888;48.606;9.630;2024-01-15T04:24:02;8.87;;;2.63;;
19495;SDS011;9888;48.606;9.630;2024-01-15T04:26:29;10.60;;;3.57;;
19495;SDS011;9888;48.606;9.630;2024-01-15T04:28:56;9.73;;;3.17;;
19495;SDS011;9888;48.606;9.630;2024-01-15T04:31:30;7.00;;;2.10;;
19495;SDS011;9888;48.606;9.630;2024-01-15T04:33:57;9.20;;;3.00;;
19495;SDS011;9888;48.606;9.630;2024-01-15T04:36:23;12.90;;;3.67;;
19495;SDS011;9888;48.606;9.630;2024-01-15T04:38:51;8.07;;;2.10;;
19495;SDS011;9888;48.606;9.630;2024-01-15T04:41:23;9.20;;;2.93;;
19495;SDS011;9888;48.606;9.630;2024-01-15T04:43:50;10.67;;;3.57;;
19495;SDS011;9888;48.606;9.630;2024-01-15T04:46:17;8.80;;;2.77;;
19495;SDS011;9888;48.606;9.630;2024-01-15T04:48:52;10.73;;;3.37;;
19495;SDS011;9888;48.606;9.630;2024-01-15T04:51:21;9.27;;;3.10;;
19495;SDS011;9888;48.606;9.630;2024-01-15T04:53:48;7.10;;;2.43;;
19495;SDS011;9888;48.606;9.630;2024-01-15T04:56:15;8.63;;;2.50;;
19495;SDS011;9888;48.606;9.630;2024-01-15T04:58:42;9.07;;;3.00;;
19495;SDS011;9888;48.606;9.630;2024-01-15T05:01:10;8.67;;;2.23;;
19495;SDS011;9888;48.606;9.630;2024-01-15T05:03:37;7.33;;;2.30;;
19495;SDS011;9888;48.606;9.630;2024-01-15T05:06:04;7.90;;;2.60;;
19495;SDS011;9888;48.606;9.630;2024-01-15T05:08:32;8.70;;;2.37;;
19495;SDS011;9888;48.606;9.630;2024-01-15T05:10:59;7.10;;;2.10;;
19495;SDS011;9888;48.606;9.630;2024-01-15T05:13:26;8.07;;;2.10;;
19495;SDS011;9888;48.606;9.630;2024-01-15T05:15:54;6.90;;;1.90;;
19495;SDS011;9888;48.606;9.630;2024-01-15T05:18:39;8.30;;;2.90;;
19495;SDS011;9888;48.606;9.630;2024-01-15T05:21:22;8.17;;;2.50;;
19495;SDS011;9888;48.606;9.630;2024-01-15T05:23:49;7.40;;;2.53;;
19495;SDS011;9888;48.606;9.630;2024-01-15T05:26:17;9.20;;;2.00;;
19495;SDS011;9888;48.606;9.630;2024-01-15T05:28:46;7.83;;;2.20;;
19495;SDS011;9888;48.606;9.630;2024-01-15T05:31:13;9.10;;;2.63;;
19495;SDS011;9888;48.606;9.630;2024-01-15T05:33:42;7.90;;;2.60;;
19495;SDS011;9888;48.606;9.630;2024-01-15T05:36:09;7.07;;;1.97;;
19495;SDS011;9888;48.606;9.630;2024-01-15T05:38:44;8.63;;;2.73;;
19495;SDS011;9888;48.606;9.630;2024-01-15T05:44:34;8.70;;;2.80;;
19495;SDS011;9888;48.606;9.630;2024-01-15T05:47:06;8.97;;;3.20;;
19495;SDS011;9888;48.606;9.630;2024-01-15T05:49:33;6.70;;;2.37;;
19495;SDS011;9888;48.606;9.630;2024-01-15T05:52:02;10.30;;;3.77;;
19495;SDS011;9888;48.606;9.630;2024-01-15T05:54:31;11.23;;;3.80;;
19495;SDS011;9888;48.606;9.630;2024-01-15T05:56:58;9.43;;;3.40;;
19495;SDS011;9888;48.606;9.630;2024-01-15T06:02:46;9.63;;;3.50;;
19495;SDS011;9888;48.606;9.630;2024-01-15T06:05:14;7.70;;;2.40;;
19495;SDS011;9888;48.606;9.630;2024-01-15T06:07:50;9.10;;;3.23;;
19495;SDS011;9888;48.606;9.630;2024-01-15T06:10:18;8.30;;;3.10;;
19495;SDS011;9888;48.606;9.630;2024-01-15T06:12:46;10.87;;;2.93;;
19495;SDS011;9888;48.606;9.630;2024-01-15T06:15:13;6.70;;;2.20;;
19495;SDS011;9888;48.606;9.630;2024-01-15T06:17:46;7.60;;;2.50;;
19495;SDS011;9888;48.606;9.630;2024-01-15T06:20:18;7.70;;;2.93;;
19495;SDS011;9888;48.606;9.630;2024-01-15T06:22:48;5.97;;;1.97;;
19495;SDS011;9888;48.606;9.630;2024-01-15T06:25:16;8.37;;;2.40;;
19495;SDS011;9888;48.606;9.630;2024-01-15T06:27:44;9.70;;;3.70;;
19495;SDS011;9888;48.606;9.630;2024-01-15T06:30:15;9.60;;;3.30;;
19495;SDS011;9888;48.606;9.630;2024-01-15T06:32:44;11.73;;;4.27;;
19495;SDS011;9888;48.606;9.630;2024-01-15T06:35:11;11.43;;;3.23;;
19495;SDS011;9888;48.606;9.630;2024-01-15T06:37:47;8.27;;;3.17;;
19495;SDS011;9888;48.606;9.630;2024-01-15T06:40:14;10.17;;;3.50;;
19495;SDS011;9888;48.606;9.630;2024-01-15T06:42:53;8.77;;;3.73;;
19495;SDS011;9888;48.606;9.630;2024-01-15T06:45:20;8.70;;;3.30;;
19495;SDS011;9888;48.606;9.630;2024-01-15T06:48:02;11.37;;;3.17;;
19495;SDS011;9888;48.606;9.630;2024-01-15T06:50:29;14.30;;;4.20;;
19495;SDS011;9888;48.606;9.630;2024-01-15T06:52:57;11.60;;;4.30;;
19495;SDS011;9888;48.606;9.630;2024-01-15T06:55:24;12.73;;;4.30;;
19495;SDS011;9888;48.606;9.630;2024-01-15T06:57:51;11.83;;;4.43;;
19495;SDS011;9888;48.606;9.630;2024-01-15T07:00:19;10.23;;;4.37;;
19495;SDS011;9888;48.606;9.630;2024-01-15T07:02:46;10.93;;;3.90;;
19495;SDS011;9888;48.606;9.630;2024-01-15T07:05:13;11.17;;;4.80;;
19495;SDS011;9888;48.606;9.630;2024-01-15T07:07:40;11.83;;;4.70;;
19495;SDS011;9888;48.606;9.630;2024-01-15T07:13:28;10.50;;;4.63;;
19495;SDS011;9888;48.606;9.630;2024-01-15T07:15:57;11.80;;;4.50;;
19495;SDS011;9888;48.606;9.630;2024-01-15T07:18:25;10.93;;;4.13;;
19495;SDS011;9888;48.606;9.630;2024-01-15T07:20:52;11.90;;;4.30;;
19495;SDS011;9888;48.606;9.630;2024-01-15T07:23:18;12.90;;;4.50;;
19495;SDS011;9888;48.606;9.630;2024-01-15T07:25:47;10.90;;;4.60;;
19495;SDS011;9888;48.606;9.630;2024-01-15T07:28:14;10.37;;;4.17;;
19495;SDS011;9888;48.606;9.630;2024-01-15T07:30:41;11.87;;;4.40;;
19495;SDS011;9888;48.606;9.630;2024-01-15T07:33:08;14.60;;;4.73;;
19495;SDS011;9888;48.606;9.630;2024-01-15T07:35:35;12.47;;;4.30;;
19495;SDS011;9888;48.606;9.630;2024-01-15T07:38:02;12.53;;;4.23;;
19495;SDS011;9888;48.606;9.630;2024-01-15T07:40:29;11.20;;;3.97;;
19495;SDS011;9888;48.606;9.630;2024-01-15T07:43:00;12.97;;;4.27;;
19495;SDS011;9888;48.606;9.630;2024-01-15T07:45:27;9.90;;;4.20;;
19495;SDS011;9888;48.606;9.630;2024-01-15T07:47:53;9.20;;;3.43;;
19495;SDS011;9888;48.606;9.630;2024-01-15T07:50:20;9.80;;;4.00;;
19495;SDS011;9888;48.606;9.630;2024-01-15T07:52:47;7.80;;;2.97;;
19495;SDS011;9888;48.606;9.630;2024-01-15T07:55:16;9.50;;;3.30;;
19495;SDS011;9888;48.606;9.630;2024-01-15T07:57:43;43.27;;;5.07;;
19495;SDS011;9888;48.606;9.630;2024-01-15T08:00:12;13.43;;;3.53;;
19495;SDS011;9888;48.606;9.630;2024-01-15T08:02:39;10.57;;;3.40;;
19495;SDS011;9888;48.606;9.630;2024-01-15T08:05:06;8.47;;;3.30;;
19495;SDS011;9888;48.606;9.630;2024-01-15T08:07:34;12.23;;;3.60;;
19495;SDS011;9888;48.606;9.630;2024-01-15T08:10:02;8.43;;;3.03;;
19495;SDS011;9888;48.606;9.630;2024-01-15T08:12:29;11.50;;;3.50;;
19495;SDS011;9888;48.606;9.630;2024-01-15T08:14:57;7.47;;;2.30;;
19495;SDS011;9888;48.606;9.630;2024-01-15T08:17:25;9.17;;;2.33;;
19495;SDS011;9888;48.606;9.630;2024-01-15T08:19:54;7.47;;;2.17;;
19495;SDS011;9888;48.606;9.630;2024-01-15T08:25:41;8.17;;;2.20;;
19495;SDS011;9888;48.606;9.630;2024-01-15T08:28:09;7.40;;;2.23;;
19495;SDS011;9888;48.606;9.630;2024-01-15T08:33:57;7.73;;;2.33;;
19495;SDS011;9888;48.606;9.630;2024-01-15T08:36:25;7.17;;;2.30;;
19495;SDS011;9888;48.606;9.630;2024-01-15T08:38:53;7.30;;;2.13;;
19495;SDS011;9888;48.606;9.630;2024-01-15T08:41:21;9.10;;;2.20;;
19495;SDS011;9888;48.606;9.630;2024-01-15T08:46:37;5.50;;;1.47;;
19495;SDS011;9888;48.606;9.630;2024-01-15T08:49:08;7.57;;;1.80;;
19495;SDS011;9888;48.606;9.630;2024-01-15T08:51:37;7.80;;;2.27;;
19495;SDS011;9888;48.606;9.630;2024-01-15T08:54:11;7.07;;;1.90;;
19495;SDS011;9888;48.606;9.630;2024-01-15T08:56:38;8.93;;;2.63;;
19495;SDS011;9888;48.606;9.630;2024-01-15T08:59:06;7.50;;;2.20;;
19495;SDS011;9888;48.606;9.630;2024-01-15T09:01:43;8.90;;;2.03;;
19495;SDS011;9888;48.606;9.630;2024-01-15T09:07:18;6.60;;;2.27;;
19495;SDS011;9888;48.606;9.630;2024-01-15T09:09:52;6.93;;;2.03;;
19495;SDS011;9888;48.606;9.630;2024-01-15T09:12:19;8.10;;;2.30;;
19495;SDS011;9888;48.606;9.630;2024-01-15T09:14:48;6.07;;;1.73;;
19495;SDS011;9888;48.606;9.630;2024-01-15T09:17:16;6.53;;;1.90;;
19495;SDS011;9888;48.606;9.630;2024-01-15T09:19:51;6.40;;;1.70;;
19495;SDS011;9888;48.606;9.630;2024-01-15T09:22:18;7.60;;;2.63;;
19495;SDS011;9888;48.606;9.630;2024-01-15T09:24:45;6.00;;;1.80;;
19495;SDS011;9888;48.606;9.630;2024-01-15T09:27:13;8.13;;;2.40;;
19495;SDS011;9888;48.606;9.630;2024-01-15T09:29:41;5.57;;;1.73;;
19495;SDS011;9888;48.606;9.630;2024-01-15T09:32:11;6.40;;;2.10;;
19495;SDS011;9888;48.606;9.630;2024-01-15T09:34:38;6.20;;;1.90;;
19495;SDS011;9888;48.606;9.630;2024-01-15T09:37:07;6.90;;;2.10;;
19495;SDS011;9888;48.606;9.630;2024-01-15T09:39:34;6.77;;;1.60;;
19495;SDS011;9888;48.606;9.630;2024-01-15T09:42:04;6.00;;;1.50;;
19495;SDS011;9888;48.606;9.630;2024-01-15T09:44:33;7.23;;;2.00;;
19495;SDS011;9888;48.606;9.630;2024-01-15T09:47:03;6.87;;;2.07;;
19495;SDS011;9888;48.606;9.630;2024-01-15T09:49:32;6.63;;;1.87;;
19495;SDS011;9888;48.606;9.630;2024-01-15T09:51:59;6.70;;;1.73;;
19495;SDS011;9888;48.606;9.630;2024-01-15T09:54:27;5.70;;;1.47;;
19495;SDS011;9888;48.606;9.630;2024-01-15T09:56:55;6.20;;;1.80;;
19495;SDS011;9888;48.606;9.630;2024-01-15T09:59:22;5.97;;;2.00;;
19495;SDS011;9888;48.606;9.630;2024-01-15T10:01:50;6.10;;;1.77;;
19495;SDS011;9888;48.606;9.630;2024-01-15T10:04:20;7.30;;;1.87;;
19495;SDS011;9888;48.606;9.630;2024-01-15T10:06:50;6.07;;;1.57;;
19495;SDS011;9888;48.606;9.630;2024-01-15T10:09:18;7.53;;;2.30;;
19495;SDS011;9888;48.606;9.630;2024-01-15T10:11:44;6.33;;;1.83;;
19495;SDS011;9888;48.606;9.630;2024-01-15T10:14:19;7.20;;;1.80;;
19495;SDS011;9888;48.606;9.630;2024-01-15T10:16:46;5.60;;;1.80;;
19495;SDS011;9888;48.606;9.630;2024-01-15T10:19:12;6.03;;;2.00;;
19495;SDS011;9888;48.606;9.630;2024-01-15T10:21:39;8.67;;;2.30;;
19495;SDS011;9888;48.606;9.630;2024-01-15T10:24:12;6.20;;;1.90;;
19495;SDS011;9888;48.606;9.630;2024-01-15T10:26:40;6.60;;;1.67;;
19495;SDS011;9888;48.606;9.630;2024-01-15T10:29:14;5.90;;;1.60;;
19495;SDS011;9888;48.606;9.630;2024-01-15T10:31:41;5.40;;;1.37;;
19495;SDS011;9888;48.606;9.630;2024-01-15T10:34:11;6.50;;;2.00;;
19495;SDS011;9888;48.606;9.630;2024-01-15T10:36:41;5.00;;;1.17;;
19495;SDS011;9888;48.606;9.630;2024-01-15T10:39:23;5.53;;;1.60;;
19495;SDS011;9888;48.606;9.630;2024-01-15T10:41:50;6.17;;;1.73;;
19495;SDS011;9888;48.606;9.630;2024-01-15T10:44:17;5.20;;;1.60;;
19495;SDS011;9888;48.606;9.630;2024-01-15T10:47:00;7.17;;;1.67;;
19495;SDS011;9888;48.606;9.630;2024-01-15T10:49:27;6.00;;;1.70;;
19495;SDS011;9888;48.606;9.630;2024-01-15T10:51:56;8.20;;;2.00;;
19495;SDS011;9888;48.606;9.630;2024-01-15T10:54:24;5.77;;;1.20;;
19495;SDS011;9888;48.606;9.630;2024-01-15T10:56:56;6.20;;;1.47;;
19495;SDS011;9888;48.606;9.630;2024-01-15T10:59:24;8.40;;;1.97;;
19495;SDS011;9888;48.606;9.630;2024-01-15T11:01:51;6.27;;;1.97;;
19495;SDS011;9888;48.606;9.630;2024-01-15T11:04:24;7.00;;;1.93;;
19495;SDS011;9888;48.606;9.630;2024-01-15T11:06:55;5.70;;;1.80;;
19495;SDS011;9888;48.606;9.630;2024-01-15T11:09:25;6.60;;;2.07;;
19495;SDS011;9888;48.606;9.630;2024-01-15T11:12:26;5.40;;;1.73;;
19495;SDS011;9888;48.606;9.630;2024-01-15T11:14:48;7.13;;;2.10;;
19495;SDS011;9888;48.606;9.630;2024-01-15T11:17:17;5.33;;;1.70;;
19495;SDS011;9888;48.606;9.630;2024-01-15T11:19:46;6.83;;;2.30;;
19495;SDS011;9888;48.606;9.630;2024-01-15T11:25:02;7.70;;;2.30;;
19495;SDS011;9888;48.606;9.630;2024-01-15T11:27:40;7.33;;;2.30;;
19495;SDS011;9888;48.606;9.630;2024-01-15T11:30:11;6.30;;;2.30;;
19495;SDS011;9888;48.606;9.630;2024-01-15T11:32:38;6.50;;;1.70;;
19495;SDS011;9888;48.606;9.630;2024-01-15T11:38:30;5.97;;;2.00;;
19495;SDS011;9888;48.606;9.630;2024-01-15T11:40:58;7.50;;;2.40;;
19495;SDS011;9888;48.606;9.630;2024-01-15T11:43:27;7.70;;;2.37;;
19495;SDS011;9888;48.606;9.630;2024-01-15T11:49:21;7.00;;;2.10;;
19495;SDS011;9888;48.606;9.630;2024-01-15T11:52:13;6.70;;;2.50;;
19495;SDS011;9888;48.606;9.630;2024-01-15T11:54:58;7.57;;;2.57;;
19495;SDS011;9888;48.606;9.630;2024-01-15T11:57:47;7.20;;;2.43;;
19495;SDS011;9888;48.606;9.630;2024-01-15T12:03:28;7.90;;;2.70;;
19495;SDS011;9888;48.606;9.630;2024-01-15T12:05:59;7.63;;;2.70;;
19495;SDS011;9888;48.606;9.630;2024-01-15T12:08:28;5.70;;;1.93;;
19495;SDS011;9888;48.606;9.630;2024-01-15T12:10:56;8.33;;;2.10;;
19495;SDS011;9888;48.606;9.630;2024-01-15T12:13:24;6.10;;;2.30;;
19495;SDS011;9888;48.606;9.630;2024-01-15T12:15:51;5.23;;;1.53;;
19495;SDS011;9888;48.606;9.630;2024-01-15T12:18:20;6.50;;;2.07;;
19495;SDS011;9888;48.606;9.630;2024-01-15T12:20:47;7.07;;;2.20;;
19495;SDS011;9888;48.606;9.630;2024-01-15T12:23:19;6.90;;;2.30;;
19495;SDS011;9888;48.606;9.630;2024-01-15T12:25:49;6.27;;;2.00;;
19495;SDS011;9888;48.606;9.630;2024-01-15T12:28:17;7.77;;;2.00;;
19495;SDS011;9888;48.606;9.630;2024-01-15T12:30:46;7.97;;;2.67;;
19495;SDS011;9888;48.606;9.630;2024-01-15T12:33:17;6.53;;;1.97;;
19495;SDS011;9888;48.606;9.630;2024-01-15T12:35:46;11.20;;;3.30;;
19495;SDS011;9888;48.606;9.630;2024-01-15T12:38:13;9.37;;;2.83;;
19495;SDS011;9888;48.606;9.630;2024-01-15T12:40:44;6.77;;;1.80;;
19495;SDS011;9888;48.606;9.630;2024-01-15T12:43:12;7.37;;;2.50;;
19495;SDS011;9888;48.606;9.630;2024-01-15T12:45:39;8.53;;;2.50;;
19495;SDS011;9888;48.606;9.630;2024-01-15T12:48:07;9.50;;;2.90;;
19495;SDS011;9888;48.606;9.630;2024-01-15T12:50:37;6.80;;;1.80;;
19495;SDS011;9888;48.606;9.630;2024-01-15T12:53:05;7.30;;;2.67;;
19495;SDS011;9888;48.606;9.630;2024-01-15T12:55:33;19.53;;;2.70;;
19495;SDS011;9888;48.606;9.630;2024-01-15T12:58:13;7.80;;;2.67;;
19495;SDS011;9888;48.606;9.630;2024-01-15T13:00:40;6.43;;;2.23;;
19495;SDS011;9888;48.606;9.630;2024-01-15T13:03:07;8.10;;;2.50;;
19495;SDS011;9888;48.606;9.630;2024-01-15T13:05:35;8.63;;;3.10;;
19495;SDS011;9888;48.606;9.630;2024-01-15T13:08:07;8.13;;;2.90;;
19495;SDS011;9888;48.606;9.630;2024-01-15T13:10:39;7.80;;;3.13;;
19495;SDS011;9888;48.606;9.630;2024-01-15T13:13:07;7.10;;;2.40;;
19495;SDS011;9888;48.606;9.630;2024-01-15T13:15:34;7.37;;;2.40;;
19495;SDS011;9888;48.606;9.630;2024-01-15T13:18:02;9.23;;;3.13;;
19495;SDS011;9888;48.606;9.630;2024-01-15T13:20:30;7.27;;;2.63;;
19495;SDS011;9888;48.606;9.630;2024-01-15T13:22:58;8.00;;;2.87;;
19495;SDS011;9888;48.606;9.630;2024-01-15T13:25:24;7.27;;;2.57;;
19495;SDS011;9888;48.606;9.630;2024-01-15T13:27:51;10.63;;;2.80;;
19495;SDS011;9888;48.606;9.630;2024-01-15T13:30:18;8.50;;;3.20;;
19495;SDS011;9888;48.606;9.630;2024-01-15T13:32:47;10.60;;;2.90;;
19495;SDS011;9888;48.606;9.630;2024-01-15T13:35:15;8.20;;;2.17;;
19495;SDS011;9888;48.606;9.630;2024-01-15T13:37:42;7.40;;;2.67;;
19495;SDS011;9888;48.606;9.630;2024-01-15T13:40:16;7.93;;;2.70;;
19495;SDS011;9888;48.606;9.630;2024-01-15T13:42:52;11.10;;;3.20;;
19495;SDS011;9888;48.606;9.630;2024-01-15T13:45:20;7.70;;;3.10;;
19495;SDS011;9888;48.606;9.630;2024-01-15T13:47:49;10.07;;;3.50;;
19495;SDS011;9888;48.606;9.630;2024-01-15T13:50:16;9.10;;;3.30;;
19495;SDS011;9888;48.606;9.630;2024-01-15T13:52:43;7.90;;;3.10;;
19495;SDS011;9888;48.606;9.630;2024-01-15T13:55:10;7.27;;;2.27;;
19495;SDS011;9888;48.606;9.630;2024-01-15T14:00:32;8.80;;;3.40;;
19495;SDS011;9888;48.606;9.630;2024-01-15T14:03:00;9.93;;;2.80;;
19495;SDS011;9888;48.606;9.630;2024-01-15T14:05:27;6.47;;;2.20;;
19495;SDS011;9888;48.606;9.630;2024-01-15T14:07:54;9.93;;;2.70;;
19495;SDS011;9888;48.606;9.630;2024-01-15T14:10:22;11.20;;;2.83;;
19495;SDS011;9888;48.606;9.630;2024-01-15T14:12:59;5.93;;;1.80;;
19495;SDS011;9888;48.606;9.630;2024-01-15T14:15:27;7.23;;;1.70;;
19495;SDS011;9888;48.606;9.630;2024-01-15T14:17:54;7.03;;;1.87;;
19495;SDS011;9888;48.606;9.630;2024-01-15T14:20:23;9.67;;;3.20;;
19495;SDS011;9888;48.606;9.630;2024-01-15T14:22:51;8.33;;;3.30;;
19495;SDS011;9888;48.606;9.630;2024-01-15T14:25:19;12.50;;;3.97;;
19495;SDS011;9888;48.606;9.630;2024-01-15T14:27:47;8.30;;;2.73;;
19495;SDS011;9888;48.606;9.630;2024-01-15T14:30:15;10.40;;;2.97;;
19495;SDS011;9888;48.606;9.630;2024-01-15T14:32:42;7.90;;;2.53;;
19495;SDS011;9888;48.606;9.630;2024-01-15T14:35:10;7.73;;;2.90;;
19495;SDS011;9888;48.606;9.630;2024-01-15T14:37:37;11.00;;;4.13;;
19495;SDS011;9888;48.606;9.630;2024-01-15T14:40:05;8.70;;;3.00;;
19495;SDS011;9888;48.606;9.630;2024-01-15T14:42:36;8.70;;;2.40;;
19495;SDS011;9888;48.606;9.630;2024-01-15T14:45:03;7.00;;;2.23;;
19495;SDS011;9888;48.606;9.630;2024-01-15T14:47:37;6.83;;;2.20;;
19495;SDS011;9888;48.606;9.630;2024-01-15T14:50:08;8.60;;;3.20;;
19495;SDS011;9888;48.606;9.630;2024-01-15T14:52:36;8.03;;;2.70;;
19495;SDS011;9888;48.606;9.630;2024-01-15T14:55:03;10.87;;;3.73;;
19495;SDS011;9888;48.606;9.630;2024-01-15T14:57:30;10.03;;;3.90;;
19495;SDS011;9888;48.606;9.630;2024-01-15T14:59:57;10.53;;;3.03;;
19495;SDS011;9888;48.606;9.630;2024-01-15T15:02:26;8.40;;;2.10;;
19495;SDS011;9888;48.606;9.630;2024-01-15T15:04:54;8.93;;;3.57;;
19495;SDS011;9888;48.606;9.630;2024-01-15T15:07:22;8.93;;;3.63;;
19495;SDS011;9888;48.606;9.630;2024-01-15T15:09:50;8.87;;;3.37;;
19495;SDS011;9888;48.606;9.630;2024-01-15T15:12:17;9.40;;;3.10;;
19495;SDS011;9888;48.606;9.630;2024-01-15T15:14:46;13.23;;;3.27;;
19495;SDS011;9888;48.606;9.630;2024-01-15T15:17:13;7.27;;;2.93;;
19495;SDS011;9888;48.606;9.630;2024-01-15T15:19:40;9.37;;;3.57;;
19495;SDS011;9888;48.606;9.630;2024-01-15T15:22:07;10.10;;;3.60;;
19495;SDS011;9888;48.606;9.630;2024-01-15T15:24:38;8.07;;;2.77;;
19495;SDS011;9888;48.606;9.630;2024-01-15T15:27:07;11.80;;;4.50;;
19495;SDS011;9888;48.606;9.630;2024-01-15T15:29:36;9.43;;;2.77;;
19495;SDS011;9888;48.606;9.630;2024-01-15T15:32:04;10.63;;;4.67;;
19495;SDS011;9888;48.606;9.630;2024-01-15T15:34:32;10.50;;;4.40;;
19495;SDS011;9888;48.606;9.630;2024-01-15T15:37:00;15.20;;;4.90;;
19495;SDS011;9888;48.606;9.630;2024-01-15T15:39:27;12.37;;;4.90;;
19495;SDS011;9888;48.606;9.630;2024-01-15T15:41:54;11.40;;;5.50;;
19495;SDS011;9888;48.606;9.630;2024-01-15T15:44:21;10.03;;;4.60;;
19495;SDS011;9888;48.606;9.630;2024-01-15T15:46:48;13.20;;;5.50;;
19495;SDS011;9888;48.606;9.630;2024-01-15T15:49:15;13.50;;;5.40;;
19495;SDS011;9888;48.606;9.630;2024-01-15T15:51:42;10.85;;;5.13;;
19495;SDS011;9888;48.606;9.630;2024-01-15T15:54:14;9.07;;;3.43;;
19495;SDS011;9888;48.606;9.630;2024-01-15T15:56:49;12.83;;;4.97;;
19495;SDS011;9888;48.606;9.630;2024-01-15T15:59:17;13.63;;;5.40;;
19495;SDS011;9888;48.606;9.630;2024-01-15T16:02:02;11.75;;;4.95;;
19495;SDS011;9888;48.606;9.630;2024-01-15T16:04:29;12.93;;;4.50;;